PWSweather.com
Personal Weather Stations
Station Observations
CW6888
Sola Virtus Observatory, Norrisville, MD

Sola Virtus ObservatoryNorrisville, MD

Lat: 39.7025, Lon: -76.5447

Elevation: 738

Station Type: Davis Vantage Pro2

http://sola-virtus-observatory.org

Latest ConditionsUpdated 7:00:01 PM EDT Tuesday, Mar 26, 2019
Currently Today's Max Today's Min Today's Average
Temperature 42.5°F5.8°C 45.4°F7.4°C 30.0°F-1.1°C 37.2°F2.9°C
Dew Point 13.9°F-10.1°C 34.7°F1.5°C 11.9°F-11.2°C 19.1°F-7.2°C
Winds 3.0 mph NNE4.8 kmh NNE 9.0 mph -14.5 kmh - - 6.2 mph 10.0 kmh
Wind Gusts 8.0 mph12.9 kmh 19.0 mph30.6 kmh - -
Humidity 31% 92% 28% 51%
Pressure 30.34 in1027.4 mb 30.34 in1027.4 mb 30.11 in1019.6 mb -
Precipitation - 0.01 in0.3 mm - -
Hour Temp Dew Point Humidity Winds Wind Gusts Pressure Precip Precip Rate Daily Precip Total
07:00 PM 42.5°F5.8°C 13.9°F-10.1°C 31% 3.0 mph NNE4.8 kmh NNE 8.0 mph12.9 kmh 30.34 in1027.4 mb 0.00 in0.0 mm 0.00 in0.0 mm 0.01 in0.3 mm
06:40 PM 43.1°F6.2°C 13.7°F-10.2°C 30% 5.0 mph NNE8.0 kmh NNE 11.0 mph17.7 kmh 30.34 in1027.4 mb 0.00 in0.0 mm 0.00 in0.0 mm 0.01 in0.3 mm
06:20 PM 43.8°F6.6°C 12.8°F-10.7°C 28% 6.0 mph NNE9.7 kmh NNE 12.0 mph19.3 kmh 30.33 in1027.1 mb 0.00 in0.0 mm 0.00 in0.0 mm 0.01 in0.3 mm
06:00 PM 44.8°F7.1°C 14.4°F-9.8°C 29% 6.0 mph NE9.7 kmh NE 13.0 mph20.9 kmh 30.32 in1026.8 mb 0.00 in0.0 mm 0.00 in0.0 mm 0.01 in0.3 mm
05:40 PM 45.4°F7.4°C 14.9°F-9.5°C 29% 5.0 mph NE8.0 kmh NE 17.0 mph27.4 kmh 30.32 in1026.8 mb 0.00 in0.0 mm 0.00 in0.0 mm 0.01 in0.3 mm
05:20 PM 45.3°F7.4°C 14.1°F-9.9°C 28% 5.0 mph NNE8.0 kmh NNE 12.0 mph19.3 kmh 30.31 in1026.4 mb 0.00 in0.0 mm 0.00 in0.0 mm 0.01 in0.3 mm
05:00 PM 45.3°F7.4°C 15.6°F-9.1°C 30% 6.0 mph N9.7 kmh N 10.0 mph16.1 kmh 30.30 in1026.1 mb 0.00 in0.0 mm 0.00 in0.0 mm 0.01 in0.3 mm
04:40 PM 45.3°F7.4°C 17.1°F-8.3°C 32% 7.0 mph NE11.3 kmh NE 12.0 mph19.3 kmh 30.30 in1026.1 mb 0.00 in0.0 mm 0.00 in0.0 mm 0.01 in0.3 mm
04:20 PM 45.1°F7.3°C 17.0°F-8.3°C 32% 6.0 mph NNE9.7 kmh NNE 14.0 mph22.5 kmh 30.31 in1026.4 mb 0.00 in0.0 mm 0.00 in0.0 mm 0.01 in0.3 mm
04:00 PM 44.5°F6.9°C 17.1°F-8.3°C 33% 7.0 mph NNE11.3 kmh NNE 14.0 mph22.5 kmh 30.31 in1026.4 mb 0.00 in0.0 mm 0.00 in0.0 mm 0.01 in0.3 mm
03:40 PM 44.0°F6.7°C 18.7°F-7.4°C 36% 8.0 mph NNE12.9 kmh NNE 14.0 mph22.5 kmh 30.30 in1026.1 mb 0.00 in0.0 mm 0.00 in0.0 mm 0.01 in0.3 mm
03:20 PM 43.6°F6.4°C 17.7°F-7.9°C 35% 7.0 mph NE11.3 kmh NE 15.0 mph24.1 kmh 30.30 in1026.1 mb 0.00 in0.0 mm 0.00 in0.0 mm 0.01 in0.3 mm
03:00 PM 43.5°F6.4°C 18.9°F-7.3°C 37% 7.0 mph NE11.3 kmh NE 17.0 mph27.4 kmh 30.31 in1026.4 mb 0.00 in0.0 mm 0.00 in0.0 mm 0.01 in0.3 mm
02:40 PM 42.6°F5.9°C 19.9°F-6.7°C 40% 8.0 mph NE12.9 kmh NE 14.0 mph22.5 kmh 30.31 in1026.4 mb 0.00 in0.0 mm 0.00 in0.0 mm 0.01 in0.3 mm
02:20 PM 41.7°F5.4°C 17.9°F-7.8°C 38% 9.0 mph NE14.5 kmh NE 18.0 mph29.0 kmh 30.32 in1026.8 mb 0.00 in0.0 mm 0.00 in0.0 mm 0.01 in0.3 mm
02:00 PM 41.4°F5.2°C 18.3°F-7.6°C 39% 7.0 mph NE11.3 kmh NE 16.0 mph25.7 kmh 30.33 in1027.1 mb 0.00 in0.0 mm 0.00 in0.0 mm 0.01 in0.3 mm
01:40 PM 40.5°F4.7°C 16.9°F-8.4°C 38% 7.0 mph NNE11.3 kmh NNE 14.0 mph22.5 kmh 30.33 in1027.1 mb 0.00 in0.0 mm 0.00 in0.0 mm 0.01 in0.3 mm
01:20 PM 39.7°F4.3°C 16.7°F-8.5°C 39% 7.0 mph NNE11.3 kmh NNE 16.0 mph25.7 kmh 30.33 in1027.1 mb 0.00 in0.0 mm 0.00 in0.0 mm 0.01 in0.3 mm
01:00 PM 39.2°F4.0°C 14.4°F-9.8°C 36% 8.0 mph NE12.9 kmh NE 16.0 mph25.7 kmh 30.34 in1027.4 mb 0.00 in0.0 mm 0.00 in0.0 mm 0.01 in0.3 mm
12:40 PM 38.5°F3.6°C 15.1°F-9.4°C 38% 7.0 mph NE11.3 kmh NE 16.0 mph25.7 kmh 30.34 in1027.4 mb 0.00 in0.0 mm 0.00 in0.0 mm 0.01 in0.3 mm
12:20 PM 37.8°F3.2°C 15.6°F-9.1°C 40% 7.0 mph NE11.3 kmh NE 13.0 mph20.9 kmh 30.34 in1027.4 mb 0.00 in0.0 mm 0.00 in0.0 mm 0.01 in0.3 mm
12:00 PM 37.0°F2.8°C 15.5°F-9.2°C 41% 7.0 mph NE11.3 kmh NE 16.0 mph25.7 kmh 30.34 in1027.4 mb 0.01 in0.3 mm 0.00 in0.0 mm 0.01 in0.3 mm
11:40 AM 37.0°F2.8°C 16.5°F-8.6°C 43% 7.0 mph NNE11.3 kmh NNE 13.0 mph20.9 kmh 30.34 in1027.4 mb 0.01 in0.3 mm 0.03 in0.8 mm 0.01 in0.3 mm
11:20 AM 35.9°F2.2°C 16.1°F-8.8°C 44% 7.0 mph NNE11.3 kmh NNE 12.0 mph19.3 kmh 30.34 in1027.4 mb 0.00 in0.0 mm 0.00 in0.0 mm 0.00 in0.0 mm
11:00 AM 35.0°F1.7°C 14.7°F-9.6°C 43% 7.0 mph NE11.3 kmh NE 14.0 mph22.5 kmh 30.34 in1027.4 mb 0.00 in0.0 mm 0.00 in0.0 mm 0.00 in0.0 mm
10:40 AM 33.9°F1.1°C 13.7°F-10.2°C 43% 7.0 mph NE11.3 kmh NE 13.0 mph20.9 kmh 30.33 in1027.1 mb 0.00 in0.0 mm 0.00 in0.0 mm 0.00 in0.0 mm
10:20 AM 33.4°F0.8°C 13.3°F-10.4°C 43% 9.0 mph NNE14.5 kmh NNE 15.0 mph24.1 kmh 30.33 in1027.1 mb 0.00 in0.0 mm 0.00 in0.0 mm 0.00 in0.0 mm
10:00 AM 32.6°F0.3°C 13.6°F-10.2°C 45% 8.0 mph NNE12.9 kmh NNE 18.0 mph29.0 kmh 30.32 in1026.8 mb 0.00 in0.0 mm 0.00 in0.0 mm 0.00 in0.0 mm
09:40 AM 32.5°F0.3°C 14.0°F-10.0°C 46% 7.0 mph NE11.3 kmh NE 13.0 mph20.9 kmh 30.31 in1026.4 mb 0.00 in0.0 mm 0.00 in0.0 mm 0.00 in0.0 mm
09:20 AM 31.9°F-0.1°C 11.9°F-11.2°C 43% 9.0 mph NE14.5 kmh NE 17.0 mph27.4 kmh 30.30 in1026.1 mb 0.00 in0.0 mm 0.00 in0.0 mm 0.00 in0.0 mm
09:00 AM 31.6°F-0.2°C 12.2°F-11.0°C 44% 8.0 mph NE12.9 kmh NE 15.0 mph24.1 kmh 30.29 in1025.7 mb 0.00 in0.0 mm 0.00 in0.0 mm 0.00 in0.0 mm
08:40 AM 31.4°F-0.3°C 13.0°F-10.6°C 46% 9.0 mph NE14.5 kmh NE 16.0 mph25.7 kmh 30.27 in1025.1 mb 0.00 in0.0 mm 0.00 in0.0 mm 0.00 in0.0 mm
08:20 AM 31.1°F-0.5°C 12.2°F-11.0°C 45% 8.0 mph NNE12.9 kmh NNE 17.0 mph27.4 kmh 30.26 in1024.7 mb 0.00 in0.0 mm 0.00 in0.0 mm 0.00 in0.0 mm
08:00 AM 30.8°F-0.7°C 12.9°F-10.6°C 47% 7.0 mph N11.3 kmh N 16.0 mph25.7 kmh 30.24 in1024.0 mb 0.00 in0.0 mm 0.00 in0.0 mm 0.00 in0.0 mm
07:40 AM 30.2°F-1.0°C 14.2°F-9.9°C 51% 5.0 mph NNE8.0 kmh NNE 11.0 mph17.7 kmh 30.24 in1024.0 mb 0.00 in0.0 mm 0.00 in0.0 mm 0.00 in0.0 mm
07:20 AM 30.1°F-1.1°C 14.1°F-9.9°C 51% 5.0 mph NNE8.0 kmh NNE 11.0 mph17.7 kmh 30.23 in1023.7 mb 0.00 in0.0 mm 0.00 in0.0 mm 0.00 in0.0 mm
07:00 AM 30.1°F-1.1°C 14.6°F-9.7°C 52% 5.0 mph NE8.0 kmh NE 11.0 mph17.7 kmh 30.22 in1023.4 mb 0.00 in0.0 mm 0.00 in0.0 mm 0.00 in0.0 mm
06:40 AM 30.0°F-1.1°C 15.8°F-9.0°C 55% 3.0 mph NNE4.8 kmh NNE 9.0 mph14.5 kmh 30.22 in1023.4 mb 0.00 in0.0 mm 0.00 in0.0 mm 0.00 in0.0 mm
06:20 AM 30.6°F-0.8°C 16.3°F-8.7°C 55% 4.0 mph NE6.4 kmh NE 9.0 mph14.5 kmh 30.21 in1023.0 mb 0.00 in0.0 mm 0.00 in0.0 mm 0.00 in0.0 mm
06:00 AM 31.2°F-0.4°C 16.9°F-8.4°C 55% 4.0 mph NE6.4 kmh NE 6.0 mph9.7 kmh 30.20 in1022.7 mb 0.00 in0.0 mm 0.00 in0.0 mm 0.00 in0.0 mm
05:40 AM 31.7°F-0.2°C 16.9°F-8.4°C 54% 5.0 mph NE8.0 kmh NE 9.0 mph14.5 kmh 30.19 in1022.4 mb 0.00 in0.0 mm 0.00 in0.0 mm 0.00 in0.0 mm
05:20 AM 32.2°F0.1°C 17.0°F-8.3°C 53% 5.0 mph NNE8.0 kmh NNE 12.0 mph19.3 kmh 30.18 in1022.0 mb 0.00 in0.0 mm 0.00 in0.0 mm 0.00 in0.0 mm
05:00 AM 32.9°F0.5°C 16.7°F-8.5°C 51% 8.0 mph NNE12.9 kmh NNE 14.0 mph22.5 kmh 30.17 in1021.7 mb 0.00 in0.0 mm 0.00 in0.0 mm 0.00 in0.0 mm
04:40 AM 33.5°F0.8°C 17.7°F-7.9°C 52% 9.0 mph NNE14.5 kmh NNE 14.0 mph22.5 kmh 30.16 in1021.3 mb 0.00 in0.0 mm 0.00 in0.0 mm 0.00 in0.0 mm
04:20 AM 34.3°F1.3°C 19.4°F-7.0°C 54% 9.0 mph NE14.5 kmh NE 19.0 mph30.6 kmh 30.15 in1021.0 mb 0.00 in0.0 mm 0.00 in0.0 mm 0.00 in0.0 mm
04:00 AM 34.8°F1.6°C 21.1°F-6.1°C 57% 9.0 mph NNE14.5 kmh NNE 13.0 mph20.9 kmh 30.14 in1020.7 mb 0.00 in0.0 mm 0.00 in0.0 mm 0.00 in0.0 mm
03:40 AM 35.6°F2.0°C 22.3°F-5.4°C 58% 8.0 mph NE12.9 kmh NE 15.0 mph24.1 kmh 30.14 in1020.7 mb 0.00 in0.0 mm 0.00 in0.0 mm 0.00 in0.0 mm
03:20 AM 36.4°F2.4°C 27.2°F-2.7°C 69% 6.0 mph NE9.7 kmh NE 13.0 mph20.9 kmh 30.13 in1020.3 mb 0.00 in0.0 mm 0.00 in0.0 mm 0.00 in0.0 mm
03:00 AM 37.2°F2.9°C 31.6°F-0.2°C 80% 5.0 mph NE8.0 kmh NE 12.0 mph19.3 kmh 30.12 in1020.0 mb 0.00 in0.0 mm 0.00 in0.0 mm 0.00 in0.0 mm
02:40 AM 37.4°F3.0°C 33.0°F0.6°C 84% 5.0 mph NE8.0 kmh NE 10.0 mph16.1 kmh 30.13 in1020.3 mb 0.00 in0.0 mm 0.00 in0.0 mm 0.00 in0.0 mm
02:20 AM 37.4°F3.0°C 33.9°F1.1°C 87% 4.0 mph NNE6.4 kmh NNE 9.0 mph14.5 kmh 30.13 in1020.3 mb 0.00 in0.0 mm 0.00 in0.0 mm 0.00 in0.0 mm
02:00 AM 37.2°F2.9°C 34.3°F1.3°C 89% 5.0 mph NE8.0 kmh NE 10.0 mph16.1 kmh 30.12 in1020.0 mb 0.00 in0.0 mm 0.00 in0.0 mm 0.00 in0.0 mm
01:40 AM 37.1°F2.8°C 34.4°F1.3°C 90% 4.0 mph NE6.4 kmh NE 9.0 mph14.5 kmh 30.12 in1020.0 mb 0.00 in0.0 mm 0.00 in0.0 mm 0.00 in0.0 mm
01:20 AM 37.0°F2.8°C 34.6°F1.4°C 91% 4.0 mph NNE6.4 kmh NNE 8.0 mph12.9 kmh 30.12 in1020.0 mb 0.00 in0.0 mm 0.00 in0.0 mm 0.00 in0.0 mm
01:00 AM 36.9°F2.7°C 34.5°F1.4°C 91% 2.0 mph NNE3.2 kmh NNE 8.0 mph12.9 kmh 30.12 in1020.0 mb 0.00 in0.0 mm 0.00 in0.0 mm 0.00 in0.0 mm
12:40 AM 36.8°F2.7°C 34.4°F1.3°C 91% 2.0 mph NNE3.2 kmh NNE 5.0 mph8.0 kmh 30.11 in1019.6 mb 0.00 in0.0 mm 0.00 in0.0 mm 0.00 in0.0 mm
12:20 AM 36.8°F2.7°C 34.7°F1.5°C 92% 2.0 mph NE3.2 kmh NE 5.0 mph8.0 kmh 30.12 in1020.0 mb 0.00 in0.0 mm 0.00 in0.0 mm 0.00 in0.0 mm
12:00 AM 36.8°F2.7°C 34.7°F1.5°C 92% 2.0 mph NNE3.2 kmh NNE 4.0 mph6.4 kmh 30.11 in1019.6 mb 0.00 in0.0 mm 0.00 in0.0 mm 0.00 in0.0 mm